sensor_id;sensor_type;location;lat;lon;timestamp;temperature;humidity
15115;DHT22;7658;51.456;7.622;2023-02-03T00:00:20;8.00;99.90
15115;DHT22;7658;51.456;7.622;2023-02-03T00:02:45;8.00;99.90
15115;DHT22;7658;51.456;7.622;2023-02-03T00:05:11;8.00;99.90
15115;DHT22;7658;51.456;7.622;2023-02-03T00:07:38;8.00;99.90
15115;DHT22;7658;51.456;7.622;2023-02-03T00:10:05;8.00;99.90
15115;DHT22;7658;51.456;7.622;2023-02-03T00:12:31;8.10;99.90
15115;DHT22;7658;51.456;7.622;2023-02-03T00:14:58;8.00;99.90
15115;DHT22;7658;51.456;7.622;2023-02-03T00:17:23;8.00;99.90
15115;DHT22;7658;51.456;7.622;2023-02-03T00:19:49;8.10;99.90
15115;DHT22;7658;51.456;7.622;2023-02-03T00:22:15;8.00;99.90
15115;DHT22;7658;51.456;7.622;2023-02-03T00:24:40;8.10;99.90
15115;DHT22;7658;51.456;7.622;2023-02-03T00:27:06;8.00;99.90
15115;DHT22;7658;51.456;7.622;2023-02-03T00:29:32;8.10;99.90
15115;DHT22;7658;51.456;7.622;2023-02-03T00:31:58;8.10;99.90
15115;DHT22;7658;51.456;7.622;2023-02-03T00:34:30;8.10;99.90
15115;DHT22;7658;51.456;7.622;2023-02-03T00:36:56;8.10;99.90
15115;DHT22;7658;51.456;7.622;2023-02-03T00:39:21;8.10;99.90
15115;DHT22;7658;51.456;7.622;2023-02-03T00:41:47;8.20;99.90
15115;DHT22;7658;51.456;7.622;2023-02-03T00:44:14;8.20;99.90
15115;DHT22;7658;51.456;7.622;2023-02-03T00:46:40;8.10;99.90
15115;DHT22;7658;51.456;7.622;2023-02-03T00:49:06;8.10;99.90
15115;DHT22;7658;51.456;7.622;2023-02-03T00:51:33;8.10;99.90
15115;DHT22;7658;51.456;7.622;2023-02-03T00:53:59;8.10;99.90
15115;DHT22;7658;51.456;7.622;2023-02-03T00:56:24;8.10;99.90
15115;DHT22;7658;51.456;7.622;2023-02-03T00:58:50;8.10;99.90
15115;DHT22;7658;51.456;7.622;2023-02-03T01:01:16;8.10;99.90
15115;DHT22;7658;51.456;7.622;2023-02-03T01:03:42;8.10;99.90
15115;DHT22;7658;51.456;7.622;2023-02-03T01:06:13;8.20;99.90
15115;DHT22;7658;51.456;7.622;2023-02-03T01:08:40;8.20;99.90
15115;DHT22;7658;51.456;7.622;2023-02-03T01:11:11;8.20;99.90
15115;DHT22;7658;51.456;7.622;2023-02-03T01:13:37;8.20;99.90
15115;DHT22;7658;51.456;7.622;2023-02-03T01:16:06;8.20;99.90
15115;DHT22;7658;51.456;7.622;2023-02-03T01:18:32;8.20;99.90
15115;DHT22;7658;51.456;7.622;2023-02-03T01:21:10;8.30;99.90
15115;DHT22;7658;51.456;7.622;2023-02-03T01:23:37;8.30;99.90
15115;DHT22;7658;51.456;7.622;2023-02-03T01:26:09;8.30;99.90
15115;DHT22;7658;51.456;7.622;2023-02-03T01:28:35;8.30;99.90
15115;DHT22;7658;51.456;7.622;2023-02-03T01:31:16;8.30;99.90
15115;DHT22;7658;51.456;7.622;2023-02-03T01:33:43;8.30;99.90
15115;DHT22;7658;51.456;7.622;2023-02-03T01:36:17;8.30;99.90
15115;DHT22;7658;51.456;7.622;2023-02-03T01:38:44;8.30;99.90
15115;DHT22;7658;51.456;7.622;2023-02-03T01:41:14;8.30;99.90
15115;DHT22;7658;51.456;7.622;2023-02-03T01:43:41;8.30;99.90
15115;DHT22;7658;51.456;7.622;2023-02-03T01:48:39;8.30;99.90
15115;DHT22;7658;51.456;7.622;2023-02-03T01:51:06;8.30;99.90
15115;DHT22;7658;51.456;7.622;2023-02-03T01:53:32;8.30;99.90
15115;DHT22;7658;51.456;7.622;2023-02-03T01:55:59;8.40;99.90
15115;DHT22;7658;51.456;7.622;2023-02-03T01:58:28;8.40;99.90
15115;DHT22;7658;51.456;7.622;2023-02-03T02:00:57;8.30;99.90
15115;DHT22;7658;51.456;7.622;2023-02-03T02:03:29;8.30;99.90
15115;DHT22;7658;51.456;7.622;2023-02-03T02:06:06;8.30;99.90
15115;DHT22;7658;51.456;7.622;2023-02-03T02:08:33;8.30;99.90
15115;DHT22;7658;51.456;7.622;2023-02-03T02:11:00;8.40;99.90
15115;DHT22;7658;51.456;7.622;2023-02-03T02:13:29;8.30;99.90
15115;DHT22;7658;51.456;7.622;2023-02-03T02:18:51;8.40;99.90
15115;DHT22;7658;51.456;7.622;2023-02-03T02:29:49;8.30;99.90
15115;DHT22;7658;51.456;7.622;2023-02-03T02:38:45;8.30;99.90
15115;DHT22;7658;51.456;7.622;2023-02-03T02:42:03;8.30;99.90
15115;DHT22;7658;51.456;7.622;2023-02-03T02:44:32;8.30;99.90
15115;DHT22;7658;51.456;7.622;2023-02-03T02:47:08;8.20;99.90
15115;DHT22;7658;51.456;7.622;2023-02-03T02:52:20;8.20;99.90
15115;DHT22;7658;51.456;7.622;2023-02-03T02:54:51;8.30;99.90
15115;DHT22;7658;51.456;7.622;2023-02-03T02:57:19;8.30;99.90
15115;DHT22;7658;51.456;7.622;2023-02-03T02:59:47;8.30;99.90
15115;DHT22;7658;51.456;7.622;2023-02-03T03:02:13;8.30;99.90
15115;DHT22;7658;51.456;7.622;2023-02-03T03:04:39;8.30;99.90
15115;DHT22;7658;51.456;7.622;2023-02-03T03:07:15;8.40;99.90
15115;DHT22;7658;51.456;7.622;2023-02-03T03:09:46;8.30;99.90
15115;DHT22;7658;51.456;7.622;2023-02-03T03:12:23;8.30;99.90
15115;DHT22;7658;51.456;7.622;2023-02-03T03:15:00;8.40;99.90
15115;DHT22;7658;51.456;7.622;2023-02-03T03:17:30;8.40;99.90
15115;DHT22;7658;51.456;7.622;2023-02-03T03:19:59;8.30;99.90
15115;DHT22;7658;51.456;7.622;2023-02-03T03:22:32;8.40;99.90
15115;DHT22;7658;51.456;7.622;2023-02-03T03:25:04;8.30;99.90
15115;DHT22;7658;51.456;7.622;2023-02-03T03:27:39;8.40;99.90
15115;DHT22;7658;51.456;7.622;2023-02-03T03:30:26;8.30;99.90
15115;DHT22;7658;51.456;7.622;2023-02-03T03:32:53;8.30;99.90
15115;DHT22;7658;51.456;7.622;2023-02-03T03:35:19;8.30;99.90
15115;DHT22;7658;51.456;7.622;2023-02-03T03:38:08;8.30;99.90
15115;DHT22;7658;51.456;7.622;2023-02-03T03:40:42;8.30;99.90
15115;DHT22;7658;51.456;7.622;2023-02-03T03:43:15;8.30;99.90
15115;DHT22;7658;51.456;7.622;2023-02-03T03:45:53;8.40;99.90
15115;DHT22;7658;51.456;7.622;2023-02-03T03:51:26;8.40;99.90
15115;DHT22;7658;51.456;7.622;2023-02-03T03:53:56;8.40;99.90
15115;DHT22;7658;51.456;7.622;2023-02-03T03:56:26;8.30;99.90
15115;DHT22;7658;51.456;7.622;2023-02-03T03:58:53;8.30;99.90
15115;DHT22;7658;51.456;7.622;2023-02-03T04:01:20;8.30;99.90
15115;DHT22;7658;51.456;7.622;2023-02-03T04:03:57;8.30;99.90
15115;DHT22;7658;51.456;7.622;2023-02-03T04:06:24;8.30;99.90
15115;DHT22;7658;51.456;7.622;2023-02-03T04:08:50;8.30;99.90
15115;DHT22;7658;51.456;7.622;2023-02-03T04:11:16;8.30;99.90
15115;DHT22;7658;51.456;7.622;2023-02-03T04:14:02;8.30;99.90
15115;DHT22;7658;51.456;7.622;2023-02-03T04:16:27;8.30;99.90
15115;DHT22;7658;51.456;7.622;2023-02-03T04:18:53;8.30;99.90
15115;DHT22;7658;51.456;7.622;2023-02-03T04:21:19;8.40;99.90
15115;DHT22;7658;51.456;7.622;2023-02-03T04:23:45;8.40;99.90
15115;DHT22;7658;51.456;7.622;2023-02-03T04:26:11;8.30;99.90
15115;DHT22;7658;51.456;7.622;2023-02-03T04:28:36;8.30;99.90
15115;DHT22;7658;51.456;7.622;2023-02-03T04:31:02;8.40;99.90
15115;DHT22;7658;51.456;7.622;2023-02-03T04:33:28;8.30;99.90
15115;DHT22;7658;51.456;7.622;2023-02-03T04:35:54;8.40;99.90
15115;DHT22;7658;51.456;7.622;2023-02-03T04:38:20;8.40;99.90
15115;DHT22;7658;51.456;7.622;2023-02-03T04:40:45;8.40;99.90
15115;DHT22;7658;51.456;7.622;2023-02-03T04:43:11;8.40;99.90
15115;DHT22;7658;51.456;7.622;2023-02-03T04:45:38;8.40;99.90
15115;DHT22;7658;51.456;7.622;2023-02-03T04:48:04;8.40;99.90
15115;DHT22;7658;51.456;7.622;2023-02-03T04:50:30;8.40;99.90
15115;DHT22;7658;51.456;7.622;2023-02-03T04:52:56;8.40;99.90
15115;DHT22;7658;51.456;7.622;2023-02-03T04:55:27;8.40;99.90
15115;DHT22;7658;51.456;7.622;2023-02-03T04:57:56;8.40;99.90
15115;DHT22;7658;51.456;7.622;2023-02-03T05:00:22;8.40;99.90
15115;DHT22;7658;51.456;7.622;2023-02-03T05:02:48;8.40;99.90
15115;DHT22;7658;51.456;7.622;2023-02-03T05:05:14;8.40;99.90
15115;DHT22;7658;51.456;7.622;2023-02-03T05:07:40;8.40;99.90
15115;DHT22;7658;51.456;7.622;2023-02-03T05:10:06;8.40;99.90
15115;DHT22;7658;51.456;7.622;2023-02-03T05:12:32;8.40;99.90
15115;DHT22;7658;51.456;7.622;2023-02-03T05:14:58;8.40;99.90
15115;DHT22;7658;51.456;7.622;2023-02-03T05:17:23;8.40;99.90
15115;DHT22;7658;51.456;7.622;2023-02-03T05:19:49;8.40;99.90
15115;DHT22;7658;51.456;7.622;2023-02-03T05:22:15;8.40;99.90
15115;DHT22;7658;51.456;7.622;2023-02-03T05:24:41;8.40;99.90
15115;DHT22;7658;51.456;7.622;2023-02-03T05:27:06;8.40;99.90
15115;DHT22;7658;51.456;7.622;2023-02-03T05:29:32;8.50;99.90
15115;DHT22;7658;51.456;7.622;2023-02-03T05:31:58;8.50;99.90
15115;DHT22;7658;51.456;7.622;2023-02-03T05:34:24;8.50;99.90
15115;DHT22;7658;51.456;7.622;2023-02-03T05:36:49;8.50;99.90
15115;DHT22;7658;51.456;7.622;2023-02-03T05:39:17;8.50;99.90
15115;DHT22;7658;51.456;7.622;2023-02-03T05:41:42;8.50;99.90
15115;DHT22;7658;51.456;7.622;2023-02-03T05:44:21;8.50;99.90
15115;DHT22;7658;51.456;7.622;2023-02-03T05:46:48;8.50;99.90
15115;DHT22;7658;51.456;7.622;2023-02-03T05:49:14;8.50;99.90
15115;DHT22;7658;51.456;7.622;2023-02-03T05:51:40;8.50;99.90
15115;DHT22;7658;51.456;7.622;2023-02-03T05:54:06;8.50;99.90
15115;DHT22;7658;51.456;7.622;2023-02-03T05:56:32;8.50;99.90
15115;DHT22;7658;51.456;7.622;2023-02-03T05:58:58;8.50;99.90
15115;DHT22;7658;51.456;7.622;2023-02-03T06:01:24;8.50;99.90
15115;DHT22;7658;51.456;7.622;2023-02-03T06:03:49;8.50;99.90
15115;DHT22;7658;51.456;7.622;2023-02-03T06:06:16;8.50;99.90
15115;DHT22;7658;51.456;7.622;2023-02-03T06:08:42;8.50;99.90
15115;DHT22;7658;51.456;7.622;2023-02-03T06:11:09;8.60;99.90
15115;DHT22;7658;51.456;7.622;2023-02-03T06:13:35;8.60;99.90
15115;DHT22;7658;51.456;7.622;2023-02-03T06:16:01;8.60;99.90
15115;DHT22;7658;51.456;7.622;2023-02-03T06:18:27;8.60;99.90
15115;DHT22;7658;51.456;7.622;2023-02-03T06:20:53;8.60;99.90
15115;DHT22;7658;51.456;7.622;2023-02-03T06:23:19;8.60;99.90
15115;DHT22;7658;51.456;7.622;2023-02-03T06:25:47;8.60;99.90
15115;DHT22;7658;51.456;7.622;2023-02-03T06:28:13;8.50;99.90
15115;DHT22;7658;51.456;7.622;2023-02-03T06:30:38;8.50;99.90
15115;DHT22;7658;51.456;7.622;2023-02-03T06:33:04;8.50;99.90
15115;DHT22;7658;51.456;7.622;2023-02-03T06:35:30;8.50;99.90
15115;DHT22;7658;51.456;7.622;2023-02-03T06:37:55;8.60;99.90
15115;DHT22;7658;51.456;7.622;2023-02-03T06:40:21;8.60;99.90
15115;DHT22;7658;51.456;7.622;2023-02-03T06:42:47;8.60;99.90
15115;DHT22;7658;51.456;7.622;2023-02-03T06:45:14;8.50;99.90
15115;DHT22;7658;51.456;7.622;2023-02-03T06:47:41;8.50;99.90
15115;DHT22;7658;51.456;7.622;2023-02-03T06:50:09;8.60;99.90
15115;DHT22;7658;51.456;7.622;2023-02-03T06:52:35;8.60;99.90
15115;DHT22;7658;51.456;7.622;2023-02-03T06:55:02;8.60;99.90
15115;DHT22;7658;51.456;7.622;2023-02-03T06:57:28;8.60;99.90
15115;DHT22;7658;51.456;7.622;2023-02-03T06:59:53;8.60;99.90
15115;DHT22;7658;51.456;7.622;2023-02-03T07:02:20;8.60;99.90
15115;DHT22;7658;51.456;7.622;2023-02-03T07:04:46;8.60;99.90
15115;DHT22;7658;51.456;7.622;2023-02-03T07:07:12;8.50;99.90
15115;DHT22;7658;51.456;7.622;2023-02-03T07:09:41;8.50;99.90
15115;DHT22;7658;51.456;7.622;2023-02-03T07:12:07;8.40;99.90
15115;DHT22;7658;51.456;7.622;2023-02-03T07:14:33;8.40;99.90
15115;DHT22;7658;51.456;7.622;2023-02-03T07:17:04;8.30;99.90
15115;DHT22;7658;51.456;7.622;2023-02-03T07:19:30;8.20;99.90
15115;DHT22;7658;51.456;7.622;2023-02-03T07:21:56;8.20;99.90
15115;DHT22;7658;51.456;7.622;2023-02-03T07:24:22;8.10;99.90
15115;DHT22;7658;51.456;7.622;2023-02-03T07:26:48;8.10;99.90
15115;DHT22;7658;51.456;7.622;2023-02-03T07:29:13;8.00;99.90
15115;DHT22;7658;51.456;7.622;2023-02-03T07:31:39;7.90;99.90
15115;DHT22;7658;51.456;7.622;2023-02-03T07:34:05;7.90;99.90
15115;DHT22;7658;51.456;7.622;2023-02-03T07:36:31;7.80;99.90
15115;DHT22;7658;51.456;7.622;2023-02-03T07:38:57;7.90;99.90
15115;DHT22;7658;51.456;7.622;2023-02-03T07:41:23;7.90;99.90
15115;DHT22;7658;51.456;7.622;2023-02-03T07:43:49;7.90;99.90
15115;DHT22;7658;51.456;7.622;2023-02-03T07:46:15;7.90;99.90
15115;DHT22;7658;51.456;7.622;2023-02-03T07:48:40;7.90;99.90
15115;DHT22;7658;51.456;7.622;2023-02-03T07:51:06;8.00;99.90
15115;DHT22;7658;51.456;7.622;2023-02-03T07:53:32;8.00;99.90
15115;DHT22;7658;51.456;7.622;2023-02-03T07:55:59;8.00;99.90
15115;DHT22;7658;51.456;7.622;2023-02-03T07:58:25;8.00;99.90
15115;DHT22;7658;51.456;7.622;2023-02-03T08:00:51;8.10;99.90
15115;DHT22;7658;51.456;7.622;2023-02-03T08:03:17;8.10;99.90
15115;DHT22;7658;51.456;7.622;2023-02-03T08:05:42;8.20;99.90
15115;DHT22;7658;51.456;7.622;2023-02-03T08:08:08;8.20;99.90
15115;DHT22;7658;51.456;7.622;2023-02-03T08:10:34;8.30;99.90
15115;DHT22;7658;51.456;7.622;2023-02-03T08:13:00;8.30;99.90
15115;DHT22;7658;51.456;7.622;2023-02-03T08:15:25;8.30;99.90
15115;DHT22;7658;51.456;7.622;2023-02-03T08:17:51;8.40;99.90
15115;DHT22;7658;51.456;7.622;2023-02-03T08:20:17;8.40;99.90
15115;DHT22;7658;51.456;7.622;2023-02-03T08:22:43;8.40;99.90
15115;DHT22;7658;51.456;7.622;2023-02-03T08:25:10;8.40;99.90
15115;DHT22;7658;51.456;7.622;2023-02-03T08:27:36;8.40;99.90
15115;DHT22;7658;51.456;7.622;2023-02-03T08:30:02;8.40;99.90
15115;DHT22;7658;51.456;7.622;2023-02-03T08:32:28;8.40;99.90
15115;DHT22;7658;51.456;7.622;2023-02-03T08:34:54;8.40;99.90
15115;DHT22;7658;51.456;7.622;2023-02-03T08:37:21;8.40;99.90
15115;DHT22;7658;51.456;7.622;2023-02-03T08:39:49;8.40;99.90
15115;DHT22;7658;51.456;7.622;2023-02-03T08:42:15;8.40;99.90
15115;DHT22;7658;51.456;7.622;2023-02-03T08:44:41;8.50;99.90
15115;DHT22;7658;51.456;7.622;2023-02-03T08:47:09;8.40;99.90
15115;DHT22;7658;51.456;7.622;2023-02-03T08:49:35;8.50;99.90
15115;DHT22;7658;51.456;7.622;2023-02-03T08:52:04;8.40;99.90
15115;DHT22;7658;51.456;7.622;2023-02-03T08:54:31;8.40;99.90
15115;DHT22;7658;51.456;7.622;2023-02-03T08:56:57;8.40;99.90
15115;DHT22;7658;51.456;7.622;2023-02-03T08:59:23;8.40;99.90
15115;DHT22;7658;51.456;7.622;2023-02-03T09:01:49;8.40;99.90
15115;DHT22;7658;51.456;7.622;2023-02-03T09:04:16;8.40;99.90
15115;DHT22;7658;51.456;7.622;2023-02-03T09:06:49;8.40;99.90
15115;DHT22;7658;51.456;7.622;2023-02-03T09:09:15;8.40;99.90
15115;DHT22;7658;51.456;7.622;2023-02-03T09:11:41;8.30;99.90
15115;DHT22;7658;51.456;7.622;2023-02-03T09:14:08;8.30;99.90
15115;DHT22;7658;51.456;7.622;2023-02-03T09:16:34;8.30;99.90
15115;DHT22;7658;51.456;7.622;2023-02-03T09:19:00;8.30;99.90
15115;DHT22;7658;51.456;7.622;2023-02-03T09:21:26;8.30;99.90
15115;DHT22;7658;51.456;7.622;2023-02-03T09:23:51;8.40;99.90
15115;DHT22;7658;51.456;7.622;2023-02-03T09:26:17;8.40;99.90
15115;DHT22;7658;51.456;7.622;2023-02-03T09:28:43;8.40;99.90
15115;DHT22;7658;51.456;7.622;2023-02-03T09:31:11;8.40;99.90
15115;DHT22;7658;51.456;7.622;2023-02-03T09:33:38;8.40;99.90
15115;DHT22;7658;51.456;7.622;2023-02-03T09:36:05;8.40;99.90
15115;DHT22;7658;51.456;7.622;2023-02-03T09:38:32;8.40;99.90
15115;DHT22;7658;51.456;7.622;2023-02-03T09:43:36;8.50;99.90
15115;DHT22;7658;51.456;7.622;2023-02-03T09:46:25;8.50;99.90
15115;DHT22;7658;51.456;7.622;2023-02-03T09:48:56;8.50;99.90
15115;DHT22;7658;51.456;7.622;2023-02-03T09:51:35;8.50;99.90
15115;DHT22;7658;51.456;7.622;2023-02-03T09:54:18;8.50;99.90
15115;DHT22;7658;51.456;7.622;2023-02-03T09:56:47;8.50;99.90
15115;DHT22;7658;51.456;7.622;2023-02-03T09:59:17;8.50;99.90
15115;DHT22;7658;51.456;7.622;2023-02-03T10:04:37;8.50;99.90
15115;DHT22;7658;51.456;7.622;2023-02-03T10:07:16;8.50;99.90
15115;DHT22;7658;51.456;7.622;2023-02-03T10:12:44;8.50;99.90
15115;DHT22;7658;51.456;7.622;2023-02-03T10:15:45;8.50;99.90
15115;DHT22;7658;51.456;7.622;2023-02-03T10:18:28;8.50;99.90
15115;DHT22;7658;51.456;7.622;2023-02-03T10:21:05;8.50;99.90
15115;DHT22;7658;51.456;7.622;2023-02-03T10:23:39;8.50;99.90
15115;DHT22;7658;51.456;7.622;2023-02-03T10:26:08;8.60;99.90
15115;DHT22;7658;51.456;7.622;2023-02-03T10:28:47;8.60;99.90
15115;DHT22;7658;51.456;7.622;2023-02-03T10:31:24;8.50;99.90
15115;DHT22;7658;51.456;7.622;2023-02-03T10:33:59;8.60;99.90
15115;DHT22;7658;51.456;7.622;2023-02-03T10:39:37;8.60;99.90
15115;DHT22;7658;51.456;7.622;2023-02-03T10:42:05;8.60;99.90
15115;DHT22;7658;51.456;7.622;2023-02-03T10:44:38;8.60;99.90
15115;DHT22;7658;51.456;7.622;2023-02-03T10:49:50;8.60;99.90
15115;DHT22;7658;51.456;7.622;2023-02-03T10:52:25;8.60;99.90
15115;DHT22;7658;51.456;7.622;2023-02-03T10:54:51;8.50;99.90
15115;DHT22;7658;51.456;7.622;2023-02-03T10:57:17;8.60;99.90
15115;DHT22;7658;51.456;7.622;2023-02-03T10:59:45;8.50;99.90
15115;DHT22;7658;51.456;7.622;2023-02-03T11:02:28;8.50;99.90
15115;DHT22;7658;51.456;7.622;2023-02-03T11:05:19;8.50;99.90
15115;DHT22;7658;51.456;7.622;2023-02-03T11:07:45;8.60;99.90
15115;DHT22;7658;51.456;7.622;2023-02-03T11:16:14;8.60;99.90
15115;DHT22;7658;51.456;7.622;2023-02-03T11:21:39;8.60;99.90
15115;DHT22;7658;51.456;7.622;2023-02-03T11:24:27;8.60;99.90
15115;DHT22;7658;51.456;7.622;2023-02-03T11:27:03;8.60;99.90
15115;DHT22;7658;51.456;7.622;2023-02-03T11:29:33;8.70;99.90
15115;DHT22;7658;51.456;7.622;2023-02-03T11:32:12;8.70;99.90
15115;DHT22;7658;51.456;7.622;2023-02-03T11:34:52;8.70;99.90
15115;DHT22;7658;51.456;7.622;2023-02-03T11:37:24;8.80;99.90
15115;DHT22;7658;51.456;7.622;2023-02-03T11:39:55;8.80;99.90
15115;DHT22;7658;51.456;7.622;2023-02-03T11:42:22;8.90;99.90
15115;DHT22;7658;51.456;7.622;2023-02-03T11:44:49;8.90;99.90
15115;DHT22;7658;51.456;7.622;2023-02-03T11:47:16;9.00;99.90
15115;DHT22;7658;51.456;7.622;2023-02-03T11:50:11;9.00;99.90
15115;DHT22;7658;51.456;7.622;2023-02-03T11:52:49;9.10;99.90
15115;DHT22;7658;51.456;7.622;2023-02-03T11:55:49;9.00;99.90
15115;DHT22;7658;51.456;7.622;2023-02-03T12:04:34;8.80;99.90
15115;DHT22;7658;51.456;7.622;2023-02-03T12:08:28;8.80;99.90
15115;DHT22;7658;51.456;7.622;2023-02-03T12:19:21;9.00;99.90
15115;DHT22;7658;51.456;7.622;2023-02-03T12:21:59;9.00;99.90
15115;DHT22;7658;51.456;7.622;2023-02-03T12:30:27;9.20;99.90
15115;DHT22;7658;51.456;7.622;2023-02-03T12:33:19;9.20;99.90
15115;DHT22;7658;51.456;7.622;2023-02-03T12:35:53;9.20;99.90
15115;DHT22;7658;51.456;7.622;2023-02-03T12:40:59;9.30;99.90
15115;DHT22;7658;51.456;7.622;2023-02-03T12:43:39;9.30;99.90
15115;DHT22;7658;51.456;7.622;2023-02-03T12:46:20;9.30;99.90
15115;DHT22;7658;51.456;7.622;2023-02-03T12:51:46;9.30;99.90
15115;DHT22;7658;51.456;7.622;2023-02-03T12:57:16;9.40;99.90
15115;DHT22;7658;51.456;7.622;2023-02-03T12:59:56;9.40;99.90
15115;DHT22;7658;51.456;7.622;2023-02-03T13:02:29;9.40;99.90
15115;DHT22;7658;51.456;7.622;2023-02-03T13:05:04;9.40;99.90
15115;DHT22;7658;51.456;7.622;2023-02-03T13:10:35;9.40;99.90
15115;DHT22;7658;51.456;7.622;2023-02-03T13:13:03;9.40;99.90
15115;DHT22;7658;51.456;7.622;2023-02-03T13:15:44;9.40;99.90
15115;DHT22;7658;51.456;7.622;2023-02-03T13:18:30;9.40;99.90
15115;DHT22;7658;51.456;7.622;2023-02-03T13:20:58;9.30;99.90
15115;DHT22;7658;51.456;7.622;2023-02-03T13:23:23;9.30;99.90
15115;DHT22;7658;51.456;7.622;2023-02-03T13:42:31;9.10;99.90
15115;DHT22;7658;51.456;7.622;2023-02-03T13:47:50;8.90;99.90
15115;DHT22;7658;51.456;7.622;2023-02-03T13:50:28;8.80;99.90
15115;DHT22;7658;51.456;7.622;2023-02-03T13:53:17;8.80;99.90
15115;DHT22;7658;51.456;7.622;2023-02-03T13:55:54;8.70;99.90
15115;DHT22;7658;51.456;7.622;2023-02-03T13:58:26;8.60;99.90
15115;DHT22;7658;51.456;7.622;2023-02-03T14:05:52;8.50;99.90
15115;DHT22;7658;51.456;7.622;2023-02-03T14:16:50;8.40;99.90
15115;DHT22;7658;51.456;7.622;2023-02-03T14:24:44;8.30;99.90
15115;DHT22;7658;51.456;7.622;2023-02-03T14:27:24;8.40;99.90
15115;DHT22;7658;51.456;7.622;2023-02-03T14:30:09;8.40;99.90
15115;DHT22;7658;51.456;7.622;2023-02-03T14:33:04;8.40;99.90
15115;DHT22;7658;51.456;7.622;2023-02-03T14:35:35;8.30;99.90
15115;DHT22;7658;51.456;7.622;2023-02-03T14:38:04;8.30;99.90
15115;DHT22;7658;51.456;7.622;2023-02-03T14:48:48;8.20;99.90
15115;DHT22;7658;51.456;7.622;2023-02-03T14:59:54;8.30;99.90
15115;DHT22;7658;51.456;7.622;2023-02-03T15:02:26;8.30;99.90
15115;DHT22;7658;51.456;7.622;2023-02-03T15:07:40;8.40;99.90
15115;DHT22;7658;51.456;7.622;2023-02-03T15:13:00;8.40;99.90
15115;DHT22;7658;51.456;7.622;2023-02-03T15:15:34;8.40;99.90
15115;DHT22;7658;51.456;7.622;2023-02-03T15:18:21;8.30;99.90
15115;DHT22;7658;51.456;7.622;2023-02-03T15:20:52;8.30;99.90
15115;DHT22;7658;51.456;7.622;2023-02-03T15:23:30;8.30;99.90
15115;DHT22;7658;51.456;7.622;2023-02-03T15:26:15;8.30;99.90
15115;DHT22;7658;51.456;7.622;2023-02-03T15:28:43;8.30;99.90
15115;DHT22;7658;51.456;7.622;2023-02-03T15:31:42;8.30;99.90
15115;DHT22;7658;51.456;7.622;2023-02-03T15:34:37;8.30;99.90
15115;DHT22;7658;51.456;7.622;2023-02-03T15:39:46;8.30;99.90
15115;DHT22;7658;51.456;7.622;2023-02-03T15:42:22;8.30;99.90
15115;DHT22;7658;51.456;7.622;2023-02-03T15:44:59;8.30;99.90
15115;DHT22;7658;51.456;7.622;2023-02-03T15:47:34;8.30;99.90
15115;DHT22;7658;51.456;7.622;2023-02-03T15:52:38;8.30;99.90
15115;DHT22;7658;51.456;7.622;2023-02-03T15:55:51;8.30;99.90
15115;DHT22;7658;51.456;7.622;2023-02-03T15:57:57;8.20;99.90
15115;DHT22;7658;51.456;7.622;2023-02-03T16:00:31;8.30;99.90
15115;DHT22;7658;51.456;7.622;2023-02-03T16:02:58;8.30;99.90
15115;DHT22;7658;51.456;7.622;2023-02-03T16:05:27;8.30;99.90
15115;DHT22;7658;51.456;7.622;2023-02-03T16:07:54;8.30;99.90
15115;DHT22;7658;51.456;7.622;2023-02-03T16:12:53;8.30;99.90
15115;DHT22;7658;51.456;7.622;2023-02-03T16:15:23;8.30;99.90
15115;DHT22;7658;51.456;7.622;2023-02-03T16:17:54;8.30;99.90
15115;DHT22;7658;51.456;7.622;2023-02-03T16:20:23;8.20;99.90
15115;DHT22;7658;51.456;7.622;2023-02-03T16:23:01;8.20;99.90
15115;DHT22;7658;51.456;7.622;2023-02-03T16:25:30;8.20;99.90
15115;DHT22;7658;51.456;7.622;2023-02-03T16:28:03;8.20;99.90
15115;DHT22;7658;51.456;7.622;2023-02-03T16:33:49;8.20;99.90
15115;DHT22;7658;51.456;7.622;2023-02-03T16:36:38;8.20;99.90
15115;DHT22;7658;51.456;7.622;2023-02-03T16:39:24;8.20;99.90
15115;DHT22;7658;51.456;7.622;2023-02-03T16:42:19;8.20;99.90
15115;DHT22;7658;51.456;7.622;2023-02-03T16:45:12;8.20;99.90
15115;DHT22;7658;51.456;7.622;2023-02-03T16:47:56;8.20;99.90
15115;DHT22;7658;51.456;7.622;2023-02-03T16:50:41;8.20;99.90
15115;DHT22;7658;51.456;7.622;2023-02-03T16:53:28;8.20;99.90
15115;DHT22;7658;51.456;7.622;2023-02-03T16:55:56;8.20;99.90
15115;DHT22;7658;51.456;7.622;2023-02-03T16:58:22;8.20;99.90
15115;DHT22;7658;51.456;7.622;2023-02-03T17:00:50;8.20;99.90
15115;DHT22;7658;51.456;7.622;2023-02-03T17:03:21;8.20;99.90
15115;DHT22;7658;51.456;7.622;2023-02-03T17:05:48;8.20;99.90
15115;DHT22;7658;51.456;7.622;2023-02-03T17:08:16;8.20;99.90
15115;DHT22;7658;51.456;7.622;2023-02-03T17:10:43;8.20;99.90
15115;DHT22;7658;51.456;7.622;2023-02-03T17:13:10;8.20;99.90
15115;DHT22;7658;51.456;7.622;2023-02-03T17:15:48;8.20;99.90
15115;DHT22;7658;51.456;7.622;2023-02-03T17:18:17;8.20;99.90
15115;DHT22;7658;51.456;7.622;2023-02-03T17:20:46;8.20;99.90
15115;DHT22;7658;51.456;7.622;2023-02-03T17:23:16;8.20;99.90
15115;DHT22;7658;51.456;7.622;2023-02-03T17:25:47;8.20;99.90
15115;DHT22;7658;51.456;7.622;2023-02-03T17:28:13;8.20;99.90
15115;DHT22;7658;51.456;7.622;2023-02-03T17:30:39;8.20;99.90
15115;DHT22;7658;51.456;7.622;2023-02-03T17:33:07;8.20;99.90
15115;DHT22;7658;51.456;7.622;2023-02-03T17:35:41;8.20;99.90
15115;DHT22;7658;51.456;7.622;2023-02-03T17:38:08;8.20;99.90
15115;DHT22;7658;51.456;7.622;2023-02-03T17:40:33;8.20;99.90
15115;DHT22;7658;51.456;7.622;2023-02-03T17:42:59;8.20;99.90
15115;DHT22;7658;51.456;7.622;2023-02-03T17:45:25;8.20;99.90
15115;DHT22;7658;51.456;7.622;2023-02-03T17:47:51;8.10;99.90
15115;DHT22;7658;51.456;7.622;2023-02-03T17:50:16;8.10;99.90
15115;DHT22;7658;51.456;7.622;2023-02-03T17:52:43;8.10;99.90
15115;DHT22;7658;51.456;7.622;2023-02-03T17:55:09;8.10;99.90
15115;DHT22;7658;51.456;7.622;2023-02-03T17:57:37;8.10;99.90
15115;DHT22;7658;51.456;7.622;2023-02-03T18:00:04;8.00;99.90
15115;DHT22;7658;51.456;7.622;2023-02-03T18:02:30;8.10;99.90
15115;DHT22;7658;51.456;7.622;2023-02-03T18:04:56;8.00;99.90
15115;DHT22;7658;51.456;7.622;2023-02-03T18:07:21;8.10;99.90
15115;DHT22;7658;51.456;7.622;2023-02-03T18:09:47;8.00;99.90
15115;DHT22;7658;51.456;7.622;2023-02-03T18:12:13;8.00;99.90
15115;DHT22;7658;51.456;7.622;2023-02-03T18:14:39;8.00;99.90
15115;DHT22;7658;51.456;7.622;2023-02-03T18:17:06;8.00;99.90
15115;DHT22;7658;51.456;7.622;2023-02-03T18:19:32;8.00;99.90
15115;DHT22;7658;51.456;7.622;2023-02-03T18:22:04;8.00;99.90
15115;DHT22;7658;51.456;7.622;2023-02-03T18:24:38;8.00;99.90
15115;DHT22;7658;51.456;7.622;2023-02-03T18:27:08;8.00;99.90
15115;DHT22;7658;51.456;7.622;2023-02-03T18:29:44;8.00;99.90
15115;DHT22;7658;51.456;7.622;2023-02-03T18:32:12;8.00;99.90
15115;DHT22;7658;51.456;7.622;2023-02-03T18:34:47;7.90;99.90
15115;DHT22;7658;51.456;7.622;2023-02-03T18:37:34;7.90;99.90
15115;DHT22;7658;51.456;7.622;2023-02-03T18:40:05;7.90;99.90
15115;DHT22;7658;51.456;7.622;2023-02-03T18:42:33;7.90;99.90
15115;DHT22;7658;51.456;7.622;2023-02-03T18:45:05;7.90;99.90
15115;DHT22;7658;51.456;7.622;2023-02-03T18:47:34;7.90;99.90
15115;DHT22;7658;51.456;7.622;2023-02-03T18:50:04;7.90;99.90
15115;DHT22;7658;51.456;7.622;2023-02-03T18:52:36;7.90;99.90
15115;DHT22;7658;51.456;7.622;2023-02-03T18:55:06;7.90;99.90